createdAt,value
2022-08-22T00:06:52.449Z,17.95
2022-08-22T01:06:52.401Z,17.94
2022-08-22T01:26:52.352Z,17.93
2022-08-22T01:46:51.557Z,17.93
2022-08-22T02:06:52.286Z,17.93
2022-08-22T02:46:52.238Z,17.91
2022-08-22T03:06:52.225Z,17.9
2022-08-22T03:26:52.202Z,17.89
2022-08-22T03:46:51.408Z,17.88
2022-08-22T04:06:53.702Z,17.87
2022-08-22T04:26:52.129Z,17.86
2022-08-22T04:46:52.104Z,17.86
2022-08-22T05:06:52.091Z,17.85
2022-08-22T05:26:52.106Z,17.85
2022-08-22T05:46:52.100Z,17.85
2022-08-22T06:06:52.013Z,17.85
2022-08-22T06:26:52.016Z,17.84
2022-08-22T06:46:51.962Z,17.83
2022-08-22T07:06:51.925Z,17.83
2022-08-22T07:26:51.898Z,17.81
2022-08-22T07:46:51.877Z,17.8
2022-08-22T08:06:51.878Z,17.78
2022-08-22T08:26:51.806Z,17.77
2022-08-22T08:46:55.344Z,17.76
2022-08-22T09:06:52.711Z,17.75
2022-08-22T09:26:51.613Z,17.75
2022-08-22T09:46:51.180Z,17.75
2022-08-22T10:06:51.526Z,17.74
2022-08-22T10:26:51.620Z,17.74
2022-08-22T10:46:51.599Z,17.74
2022-08-22T11:06:51.455Z,17.73
2022-08-22T11:26:51.565Z,17.73
2022-08-22T11:46:51.526Z,17.73
2022-08-22T12:06:51.510Z,17.72
2022-08-22T12:26:51.010Z,17.72
2022-08-22T12:46:51.375Z,17.73
2022-08-22T13:26:51.403Z,17.74
2022-08-22T13:47:11.076Z,17.74
2022-08-22T14:06:51.338Z,17.75
2022-08-22T14:26:51.322Z,17.75
2022-08-22T14:46:50.504Z,17.76
2022-08-22T15:06:50.482Z,17.76
2022-08-22T15:26:51.229Z,17.78
2022-08-22T16:26:50.353Z,17.82
2022-08-22T16:46:51.053Z,17.84
2022-08-22T17:06:51.098Z,17.84
2022-08-22T17:26:54.296Z,17.84
2022-08-22T17:46:50.997Z,17.85
2022-08-22T18:06:55.397Z,17.85
2022-08-22T18:26:50.937Z,17.85
2022-08-22T18:46:51.632Z,17.86
2022-08-22T19:06:50.883Z,17.86
2022-08-22T19:26:50.324Z,17.87
2022-08-22T19:46:50.814Z,17.88
2022-08-22T20:06:50.681Z,17.88
2022-08-22T20:27:10.322Z,17.89
2022-08-22T20:46:53.699Z,17.9
2022-08-22T21:06:50.683Z,17.91
2022-08-22T21:26:50.650Z,17.92
2022-08-22T21:46:49.863Z,17.92
2022-08-22T22:06:50.601Z,17.93
2022-08-22T22:26:50.561Z,17.93
2022-08-22T22:46:50.538Z,17.93
2022-08-22T23:06:50.500Z,17.93
2022-08-22T23:26:50.464Z,17.93
2022-08-22T23:46:50.450Z,17.94
